sensor_id;sensor_type;location;lat;lon;timestamp;temperature;humidity
22224;DHT22;11281;52.194;21.006;2023-04-24T00:00:09;7.90;99.90
22224;DHT22;11281;52.194;21.006;2023-04-24T00:04:11;7.80;99.90
22224;DHT22;11281;52.194;21.006;2023-04-24T00:08:20;7.80;99.90
22224;DHT22;11281;52.194;21.006;2023-04-24T00:12:24;7.80;99.90
22224;DHT22;11281;52.194;21.006;2023-04-24T00:16:27;7.80;99.90
22224;DHT22;11281;52.194;21.006;2023-04-24T00:20:29;7.80;99.90
22224;DHT22;11281;52.194;21.006;2023-04-24T00:24:31;7.70;99.90
22224;DHT22;11281;52.194;21.006;2023-04-24T00:28:32;7.70;99.90
22224;DHT22;11281;52.194;21.006;2023-04-24T00:32:34;7.80;99.90
22224;DHT22;11281;52.194;21.006;2023-04-24T00:36:36;7.80;99.90
22224;DHT22;11281;52.194;21.006;2023-04-24T00:40:38;8.20;99.90
22224;DHT22;11281;52.194;21.006;2023-04-24T00:44:40;8.20;99.90
22224;DHT22;11281;52.194;21.006;2023-04-24T00:48:43;8.20;99.90
22224;DHT22;11281;52.194;21.006;2023-04-24T00:52:45;8.10;99.90
22224;DHT22;11281;52.194;21.006;2023-04-24T00:56:46;8.00;99.90
22224;DHT22;11281;52.194;21.006;2023-04-24T01:00:49;7.80;99.90
22224;DHT22;11281;52.194;21.006;2023-04-24T01:04:54;7.60;99.90
22224;DHT22;11281;52.194;21.006;2023-04-24T01:08:55;7.90;99.90
22224;DHT22;11281;52.194;21.006;2023-04-24T01:12:58;7.70;99.90
22224;DHT22;11281;52.194;21.006;2023-04-24T01:16:59;7.70;99.90
22224;DHT22;11281;52.194;21.006;2023-04-24T01:21:03;7.50;99.90
22224;DHT22;11281;52.194;21.006;2023-04-24T01:25:05;7.60;99.90
22224;DHT22;11281;52.194;21.006;2023-04-24T01:29:07;7.40;99.90
22224;DHT22;11281;52.194;21.006;2023-04-24T01:33:09;7.30;99.90
22224;DHT22;11281;52.194;21.006;2023-04-24T01:37:11;7.30;99.90
22224;DHT22;11281;52.194;21.006;2023-04-24T01:41:13;7.20;99.90
22224;DHT22;11281;52.194;21.006;2023-04-24T01:45:15;7.20;99.90
22224;DHT22;11281;52.194;21.006;2023-04-24T01:49:16;7.10;99.90
22224;DHT22;11281;52.194;21.006;2023-04-24T01:53:18;7.10;99.90
22224;DHT22;11281;52.194;21.006;2023-04-24T01:57:19;7.10;99.90
22224;DHT22;11281;52.194;21.006;2023-04-24T02:01:21;7.00;99.90
22224;DHT22;11281;52.194;21.006;2023-04-24T02:05:24;7.00;99.90
22224;DHT22;11281;52.194;21.006;2023-04-24T02:09:26;6.90;99.90
22224;DHT22;11281;52.194;21.006;2023-04-24T02:13:28;6.90;99.90
22224;DHT22;11281;52.194;21.006;2023-04-24T02:17:31;6.80;99.90
22224;DHT22;11281;52.194;21.006;2023-04-24T02:21:33;6.90;99.90
22224;DHT22;11281;52.194;21.006;2023-04-24T02:25:34;6.80;99.90
22224;DHT22;11281;52.194;21.006;2023-04-24T02:29:36;6.70;99.90
22224;DHT22;11281;52.194;21.006;2023-04-24T02:33:38;6.60;99.90
22224;DHT22;11281;52.194;21.006;2023-04-24T02:37:40;6.50;99.90
22224;DHT22;11281;52.194;21.006;2023-04-24T02:41:43;6.60;99.90
22224;DHT22;11281;52.194;21.006;2023-04-24T02:45:44;6.80;99.90
22224;DHT22;11281;52.194;21.006;2023-04-24T02:49:46;6.70;99.90
22224;DHT22;11281;52.194;21.006;2023-04-24T02:53:48;6.70;99.90
22224;DHT22;11281;52.194;21.006;2023-04-24T02:57:50;6.90;99.90
22224;DHT22;11281;52.194;21.006;2023-04-24T03:01:51;6.80;99.90
22224;DHT22;11281;52.194;21.006;2023-04-24T03:05:53;6.80;99.90
22224;DHT22;11281;52.194;21.006;2023-04-24T03:09:56;6.70;99.90
22224;DHT22;11281;52.194;21.006;2023-04-24T03:13:59;6.80;99.90
22224;DHT22;11281;52.194;21.006;2023-04-24T03:18:01;6.70;99.90
22224;DHT22;11281;52.194;21.006;2023-04-24T03:22:03;6.70;99.90
22224;DHT22;11281;52.194;21.006;2023-04-24T03:26:05;6.70;99.90
22224;DHT22;11281;52.194;21.006;2023-04-24T03:30:07;6.90;99.90
22224;DHT22;11281;52.194;21.006;2023-04-24T03:34:09;6.90;99.90
22224;DHT22;11281;52.194;21.006;2023-04-24T03:38:11;7.00;99.90
22224;DHT22;11281;52.194;21.006;2023-04-24T03:42:13;7.10;99.90
22224;DHT22;11281;52.194;21.006;2023-04-24T03:46:15;7.10;99.90
22224;DHT22;11281;52.194;21.006;2023-04-24T03:50:16;7.10;99.90
22224;DHT22;11281;52.194;21.006;2023-04-24T03:54:19;7.20;99.90
22224;DHT22;11281;52.194;21.006;2023-04-24T03:58:21;7.30;99.90
22224;DHT22;11281;52.194;21.006;2023-04-24T04:02:22;7.40;99.90
22224;DHT22;11281;52.194;21.006;2023-04-24T04:06:24;7.50;99.90
22224;DHT22;11281;52.194;21.006;2023-04-24T04:10:25;7.80;99.90
22224;DHT22;11281;52.194;21.006;2023-04-24T04:14:27;8.10;99.90
22224;DHT22;11281;52.194;21.006;2023-04-24T04:18:30;8.20;99.90
22224;DHT22;11281;52.194;21.006;2023-04-24T04:22:32;8.40;99.90
22224;DHT22;11281;52.194;21.006;2023-04-24T04:26:34;8.60;99.90
22224;DHT22;11281;52.194;21.006;2023-04-24T04:30:36;8.90;99.90
22224;DHT22;11281;52.194;21.006;2023-04-24T04:34:39;9.00;99.90
22224;DHT22;11281;52.194;21.006;2023-04-24T04:38:41;9.10;99.90
22224;DHT22;11281;52.194;21.006;2023-04-24T04:42:44;9.40;99.90
22224;DHT22;11281;52.194;21.006;2023-04-24T04:46:47;9.40;99.90
22224;DHT22;11281;52.194;21.006;2023-04-24T04:50:49;9.50;99.90
22224;DHT22;11281;52.194;21.006;2023-04-24T04:54:51;9.80;99.90
22224;DHT22;11281;52.194;21.006;2023-04-24T04:58:53;9.90;99.90
22224;DHT22;11281;52.194;21.006;2023-04-24T05:02:54;9.80;99.90
22224;DHT22;11281;52.194;21.006;2023-04-24T05:06:56;10.20;99.90
22224;DHT22;11281;52.194;21.006;2023-04-24T05:10:58;10.30;99.90
22224;DHT22;11281;52.194;21.006;2023-04-24T05:14:59;10.60;99.90
22224;DHT22;11281;52.194;21.006;2023-04-24T05:19:01;11.10;99.90
22224;DHT22;11281;52.194;21.006;2023-04-24T05:23:03;11.70;99.90
22224;DHT22;11281;52.194;21.006;2023-04-24T05:27:05;12.40;99.90
22224;DHT22;11281;52.194;21.006;2023-04-24T05:31:06;12.90;99.90
22224;DHT22;11281;52.194;21.006;2023-04-24T05:35:09;14.00;99.90
22224;DHT22;11281;52.194;21.006;2023-04-24T05:39:11;14.10;99.90
22224;DHT22;11281;52.194;21.006;2023-04-24T05:43:13;13.90;99.90
22224;DHT22;11281;52.194;21.006;2023-04-24T05:47:14;14.00;99.90
22224;DHT22;11281;52.194;21.006;2023-04-24T05:51:16;14.80;99.90
22224;DHT22;11281;52.194;21.006;2023-04-24T05:55:18;15.30;99.90
22224;DHT22;11281;52.194;21.006;2023-04-24T05:59:20;15.90;99.90
22224;DHT22;11281;52.194;21.006;2023-04-24T06:03:22;16.10;99.90
22224;DHT22;11281;52.194;21.006;2023-04-24T06:07:24;16.40;99.90
22224;DHT22;11281;52.194;21.006;2023-04-24T06:11:27;16.20;99.90
22224;DHT22;11281;52.194;21.006;2023-04-24T06:15:30;16.40;99.90
22224;DHT22;11281;52.194;21.006;2023-04-24T06:19:34;15.20;99.90
22224;DHT22;11281;52.194;21.006;2023-04-24T06:23:36;15.30;99.90
22224;DHT22;11281;52.194;21.006;2023-04-24T06:27:38;14.90;99.90
22224;DHT22;11281;52.194;21.006;2023-04-24T06:31:40;14.70;99.90
22224;DHT22;11281;52.194;21.006;2023-04-24T06:35:41;15.80;99.90
22224;DHT22;11281;52.194;21.006;2023-04-24T06:39:43;16.60;99.90
22224;DHT22;11281;52.194;21.006;2023-04-24T06:43:46;16.90;99.90
22224;DHT22;11281;52.194;21.006;2023-04-24T06:47:47;16.80;99.90
22224;DHT22;11281;52.194;21.006;2023-04-24T06:51:49;17.10;99.90
22224;DHT22;11281;52.194;21.006;2023-04-24T06:55:51;17.20;99.90
22224;DHT22;11281;52.194;21.006;2023-04-24T06:59:53;17.50;99.90
22224;DHT22;11281;52.194;21.006;2023-04-24T07:03:55;18.10;94.40
22224;DHT22;11281;52.194;21.006;2023-04-24T07:07:57;18.60;99.90
22224;DHT22;11281;52.194;21.006;2023-04-24T07:11:59;18.70;94.00
22224;DHT22;11281;52.194;21.006;2023-04-24T07:16:01;19.00;93.00
22224;DHT22;11281;52.194;21.006;2023-04-24T07:20:02;19.50;95.10
22224;DHT22;11281;52.194;21.006;2023-04-24T07:24:05;19.50;81.30
22224;DHT22;11281;52.194;21.006;2023-04-24T07:28:11;19.20;91.30
22224;DHT22;11281;52.194;21.006;2023-04-24T07:32:12;18.90;90.60
22224;DHT22;11281;52.194;21.006;2023-04-24T07:36:14;18.60;93.30
22224;DHT22;11281;52.194;21.006;2023-04-24T07:40:21;18.40;95.00
22224;DHT22;11281;52.194;21.006;2023-04-24T07:44:22;18.70;99.90
22224;DHT22;11281;52.194;21.006;2023-04-24T07:48:24;18.70;99.90
22224;DHT22;11281;52.194;21.006;2023-04-24T07:52:27;18.70;94.20
22224;DHT22;11281;52.194;21.006;2023-04-24T07:56:28;18.80;94.90
22224;DHT22;11281;52.194;21.006;2023-04-24T08:00:32;19.40;91.60
22224;DHT22;11281;52.194;21.006;2023-04-24T08:04:34;19.20;93.00
22224;DHT22;11281;52.194;21.006;2023-04-24T08:08:36;18.80;92.20
22224;DHT22;11281;52.194;21.006;2023-04-24T08:12:38;18.70;97.70
22224;DHT22;11281;52.194;21.006;2023-04-24T08:16:39;18.70;99.30
22224;DHT22;11281;52.194;21.006;2023-04-24T08:20:42;18.90;95.20
22224;DHT22;11281;52.194;21.006;2023-04-24T08:24:44;18.90;87.90
22224;DHT22;11281;52.194;21.006;2023-04-24T08:28:46;18.90;94.80
22224;DHT22;11281;52.194;21.006;2023-04-24T08:32:47;19.20;90.40
22224;DHT22;11281;52.194;21.006;2023-04-24T08:36:49;19.40;88.00
22224;DHT22;11281;52.194;21.006;2023-04-24T08:40:52;19.70;89.90
22224;DHT22;11281;52.194;21.006;2023-04-24T08:44:54;19.60;87.80
22224;DHT22;11281;52.194;21.006;2023-04-24T08:48:56;19.90;95.10
22224;DHT22;11281;52.194;21.006;2023-04-24T08:53:01;20.00;92.90
22224;DHT22;11281;52.194;21.006;2023-04-24T08:57:03;20.00;92.10
22224;DHT22;11281;52.194;21.006;2023-04-24T09:01:05;19.70;94.70
22224;DHT22;11281;52.194;21.006;2023-04-24T09:05:07;19.40;94.20
22224;DHT22;11281;52.194;21.006;2023-04-24T09:09:10;19.70;92.80
22224;DHT22;11281;52.194;21.006;2023-04-24T09:13:13;20.00;91.90
22224;DHT22;11281;52.194;21.006;2023-04-24T09:17:15;20.10;83.40
22224;DHT22;11281;52.194;21.006;2023-04-24T09:21:17;20.80;84.10
22224;DHT22;11281;52.194;21.006;2023-04-24T09:25:19;20.40;91.20
22224;DHT22;11281;52.194;21.006;2023-04-24T09:29:21;20.10;89.90
22224;DHT22;11281;52.194;21.006;2023-04-24T09:33:23;20.20;85.10
22224;DHT22;11281;52.194;21.006;2023-04-24T09:37:28;20.50;85.60
22224;DHT22;11281;52.194;21.006;2023-04-24T09:41:32;20.70;85.40
22224;DHT22;11281;52.194;21.006;2023-04-24T09:45:38;21.00;84.60
22224;DHT22;11281;52.194;21.006;2023-04-24T09:49:41;20.60;80.10
22224;DHT22;11281;52.194;21.006;2023-04-24T09:53:46;21.00;72.90
22224;DHT22;11281;52.194;21.006;2023-04-24T09:57:59;21.30;76.40
22224;DHT22;11281;52.194;21.006;2023-04-24T10:02:01;21.60;73.70
22224;DHT22;11281;52.194;21.006;2023-04-24T10:06:03;21.80;75.50
22224;DHT22;11281;52.194;21.006;2023-04-24T10:10:10;21.40;70.70
22224;DHT22;11281;52.194;21.006;2023-04-24T10:14:17;21.60;71.10
22224;DHT22;11281;52.194;21.006;2023-04-24T10:18:21;21.70;68.50
22224;DHT22;11281;52.194;21.006;2023-04-24T10:22:22;21.90;71.20
22224;DHT22;11281;52.194;21.006;2023-04-24T10:26:24;21.40;70.00
22224;DHT22;11281;52.194;21.006;2023-04-24T10:30:30;21.40;68.60
22224;DHT22;11281;52.194;21.006;2023-04-24T10:34:36;21.40;69.60
22224;DHT22;11281;52.194;21.006;2023-04-24T10:38:39;21.20;63.60
22224;DHT22;11281;52.194;21.006;2023-04-24T10:42:47;21.20;66.70
22224;DHT22;11281;52.194;21.006;2023-04-24T10:46:54;21.30;70.40
22224;DHT22;11281;52.194;21.006;2023-04-24T10:50:56;21.70;65.40
22224;DHT22;11281;52.194;21.006;2023-04-24T10:55:01;21.50;63.70
22224;DHT22;11281;52.194;21.006;2023-04-24T10:59:07;21.70;70.40
22224;DHT22;11281;52.194;21.006;2023-04-24T11:03:24;21.40;68.60
22224;DHT22;11281;52.194;21.006;2023-04-24T11:12:12;22.40;64.30
22224;DHT22;11281;52.194;21.006;2023-04-24T11:16:20;22.70;65.00
22224;DHT22;11281;52.194;21.006;2023-04-24T11:20:35;22.80;59.60
22224;DHT22;11281;52.194;21.006;2023-04-24T11:24:40;21.90;63.70
22224;DHT22;11281;52.194;21.006;2023-04-24T11:28:50;22.20;63.00
22224;DHT22;11281;52.194;21.006;2023-04-24T11:32:52;22.20;59.70
22224;DHT22;11281;52.194;21.006;2023-04-24T11:36:54;21.60;59.80
22224;DHT22;11281;52.194;21.006;2023-04-24T11:40:56;21.50;58.50
22224;DHT22;11281;52.194;21.006;2023-04-24T11:44:58;21.20;63.60
22224;DHT22;11281;52.194;21.006;2023-04-24T11:49:01;20.80;61.20
22224;DHT22;11281;52.194;21.006;2023-04-24T11:53:04;20.40;61.40
22224;DHT22;11281;52.194;21.006;2023-04-24T11:57:05;21.30;64.80
22224;DHT22;11281;52.194;21.006;2023-04-24T12:01:07;21.80;59.60
22224;DHT22;11281;52.194;21.006;2023-04-24T12:05:23;22.20;57.50
22224;DHT22;11281;52.194;21.006;2023-04-24T12:09:25;22.20;56.90
22224;DHT22;11281;52.194;21.006;2023-04-24T12:13:27;22.40;57.50
22224;DHT22;11281;52.194;21.006;2023-04-24T12:17:31;22.80;59.10
22224;DHT22;11281;52.194;21.006;2023-04-24T12:21:34;23.00;62.00
22224;DHT22;11281;52.194;21.006;2023-04-24T12:25:38;23.00;61.20
22224;DHT22;11281;52.194;21.006;2023-04-24T12:30:00;22.10;60.80
22224;DHT22;11281;52.194;21.006;2023-04-24T12:34:03;21.80;57.60
22224;DHT22;11281;52.194;21.006;2023-04-24T12:38:10;21.60;60.00
22224;DHT22;11281;52.194;21.006;2023-04-24T12:42:13;21.80;57.50
22224;DHT22;11281;52.194;21.006;2023-04-24T12:46:14;22.10;56.90
22224;DHT22;11281;52.194;21.006;2023-04-24T12:50:16;22.30;58.80
22224;DHT22;11281;52.194;21.006;2023-04-24T12:54:18;22.60;58.50
22224;DHT22;11281;52.194;21.006;2023-04-24T12:58:20;22.40;58.90
22224;DHT22;11281;52.194;21.006;2023-04-24T13:02:23;22.00;62.10
22224;DHT22;11281;52.194;21.006;2023-04-24T13:06:25;21.50;64.70
22224;DHT22;11281;52.194;21.006;2023-04-24T13:10:28;21.10;67.70
22224;DHT22;11281;52.194;21.006;2023-04-24T13:14:30;21.50;66.70
22224;DHT22;11281;52.194;21.006;2023-04-24T13:18:32;21.40;70.30
22224;DHT22;11281;52.194;21.006;2023-04-24T13:22:35;21.40;63.10
22224;DHT22;11281;52.194;21.006;2023-04-24T13:26:38;21.10;58.60
22224;DHT22;11281;52.194;21.006;2023-04-24T13:30:40;21.10;58.50
22224;DHT22;11281;52.194;21.006;2023-04-24T13:34:42;20.90;59.80
22224;DHT22;11281;52.194;21.006;2023-04-24T13:38:44;21.00;60.60
22224;DHT22;11281;52.194;21.006;2023-04-24T13:42:45;21.50;65.80
22224;DHT22;11281;52.194;21.006;2023-04-24T13:46:49;21.40;66.10
22224;DHT22;11281;52.194;21.006;2023-04-24T13:50:53;20.70;66.20
22224;DHT22;11281;52.194;21.006;2023-04-24T13:54:55;20.30;67.40
22224;DHT22;11281;52.194;21.006;2023-04-24T13:58:57;20.40;68.00
22224;DHT22;11281;52.194;21.006;2023-04-24T14:02:59;20.30;67.00
22224;DHT22;11281;52.194;21.006;2023-04-24T14:07:01;20.50;69.20
22224;DHT22;11281;52.194;21.006;2023-04-24T14:11:03;20.00;70.70
22224;DHT22;11281;52.194;21.006;2023-04-24T14:15:05;19.40;72.80
22224;DHT22;11281;52.194;21.006;2023-04-24T14:19:08;19.00;71.80
22224;DHT22;11281;52.194;21.006;2023-04-24T14:23:10;17.80;84.10
22224;DHT22;11281;52.194;21.006;2023-04-24T14:27:11;16.10;99.90
22224;DHT22;11281;52.194;21.006;2023-04-24T14:31:13;15.30;99.90
22224;DHT22;11281;52.194;21.006;2023-04-24T14:35:15;15.10;99.90
22224;DHT22;11281;52.194;21.006;2023-04-24T14:39:16;14.80;99.90
22224;DHT22;11281;52.194;21.006;2023-04-24T14:43:18;14.80;99.90
22224;DHT22;11281;52.194;21.006;2023-04-24T14:47:20;14.60;99.90
22224;DHT22;11281;52.194;21.006;2023-04-24T14:51:23;14.60;99.90
22224;DHT22;11281;52.194;21.006;2023-04-24T14:55:25;14.40;99.90
22224;DHT22;11281;52.194;21.006;2023-04-24T14:59:28;14.90;99.90
22224;DHT22;11281;52.194;21.006;2023-04-24T15:03:30;15.30;99.90
22224;DHT22;11281;52.194;21.006;2023-04-24T15:07:32;15.60;99.90
22224;DHT22;11281;52.194;21.006;2023-04-24T15:11:34;16.30;99.90
22224;DHT22;11281;52.194;21.006;2023-04-24T15:15:36;17.00;99.90
22224;DHT22;11281;52.194;21.006;2023-04-24T15:19:38;17.80;99.90
22224;DHT22;11281;52.194;21.006;2023-04-24T15:23:40;18.70;97.20
22224;DHT22;11281;52.194;21.006;2023-04-24T15:27:45;19.10;93.10
22224;DHT22;11281;52.194;21.006;2023-04-24T15:31:46;18.90;98.90
22224;DHT22;11281;52.194;21.006;2023-04-24T15:35:48;18.80;99.90
22224;DHT22;11281;52.194;21.006;2023-04-24T15:39:50;18.70;99.90
22224;DHT22;11281;52.194;21.006;2023-04-24T15:43:52;18.50;99.90
22224;DHT22;11281;52.194;21.006;2023-04-24T15:47:53;18.30;99.90
22224;DHT22;11281;52.194;21.006;2023-04-24T15:51:55;18.40;98.80
22224;DHT22;11281;52.194;21.006;2023-04-24T15:55:57;18.20;99.90
22224;DHT22;11281;52.194;21.006;2023-04-24T15:59:59;17.80;99.90
22224;DHT22;11281;52.194;21.006;2023-04-24T16:04:01;17.60;99.90
22224;DHT22;11281;52.194;21.006;2023-04-24T16:08:03;17.50;99.90
22224;DHT22;11281;52.194;21.006;2023-04-24T16:12:04;17.40;99.90
22224;DHT22;11281;52.194;21.006;2023-04-24T16:16:06;17.30;99.90
22224;DHT22;11281;52.194;21.006;2023-04-24T16:20:09;17.10;99.90
22224;DHT22;11281;52.194;21.006;2023-04-24T16:24:11;17.00;99.90
22224;DHT22;11281;52.194;21.006;2023-04-24T16:28:13;17.00;99.90
22224;DHT22;11281;52.194;21.006;2023-04-24T16:32:15;16.70;99.90
22224;DHT22;11281;52.194;21.006;2023-04-24T16:36:17;16.70;99.90
22224;DHT22;11281;52.194;21.006;2023-04-24T16:40:18;16.50;99.90
22224;DHT22;11281;52.194;21.006;2023-04-24T16:44:21;16.40;99.90
22224;DHT22;11281;52.194;21.006;2023-04-24T16:48:23;16.30;99.90
22224;DHT22;11281;52.194;21.006;2023-04-24T16:52:24;16.20;99.90
22224;DHT22;11281;52.194;21.006;2023-04-24T16:56:26;15.90;99.90
22224;DHT22;11281;52.194;21.006;2023-04-24T17:00:28;15.60;99.90
22224;DHT22;11281;52.194;21.006;2023-04-24T17:04:29;15.40;99.90
22224;DHT22;11281;52.194;21.006;2023-04-24T17:08:32;15.10;99.90
22224;DHT22;11281;52.194;21.006;2023-04-24T17:12:34;14.80;99.90
22224;DHT22;11281;52.194;21.006;2023-04-24T17:16:37;14.20;99.90
22224;DHT22;11281;52.194;21.006;2023-04-24T17:20:40;14.50;99.90
22224;DHT22;11281;52.194;21.006;2023-04-24T17:24:42;14.30;99.90
22224;DHT22;11281;52.194;21.006;2023-04-24T17:28:44;14.00;99.90
22224;DHT22;11281;52.194;21.006;2023-04-24T17:32:45;13.70;99.90
22224;DHT22;11281;52.194;21.006;2023-04-24T17:36:47;13.40;99.90
22224;DHT22;11281;52.194;21.006;2023-04-24T17:40:49;13.30;99.90
22224;DHT22;11281;52.194;21.006;2023-04-24T17:44:53;13.20;99.90
22224;DHT22;11281;52.194;21.006;2023-04-24T17:48:55;12.80;99.90
22224;DHT22;11281;52.194;21.006;2023-04-24T17:52:57;12.70;99.90
22224;DHT22;11281;52.194;21.006;2023-04-24T17:56:59;12.50;99.90
22224;DHT22;11281;52.194;21.006;2023-04-24T18:01:02;12.30;99.90
22224;DHT22;11281;52.194;21.006;2023-04-24T18:05:04;12.00;99.90
22224;DHT22;11281;52.194;21.006;2023-04-24T18:09:05;12.00;99.90
22224;DHT22;11281;52.194;21.006;2023-04-24T18:13:08;11.80;99.90
22224;DHT22;11281;52.194;21.006;2023-04-24T18:17:10;11.70;99.90
22224;DHT22;11281;52.194;21.006;2023-04-24T18:21:11;11.50;99.90
22224;DHT22;11281;52.194;21.006;2023-04-24T18:25:13;11.50;99.90
22224;DHT22;11281;52.194;21.006;2023-04-24T18:29:15;11.40;99.90
22224;DHT22;11281;52.194;21.006;2023-04-24T18:33:16;11.30;99.90
22224;DHT22;11281;52.194;21.006;2023-04-24T18:37:19;11.20;99.90
22224;DHT22;11281;52.194;21.006;2023-04-24T18:41:21;11.20;99.90
22224;DHT22;11281;52.194;21.006;2023-04-24T18:45:22;11.20;99.90
22224;DHT22;11281;52.194;21.006;2023-04-24T18:49:24;11.10;99.90
22224;DHT22;11281;52.194;21.006;2023-04-24T18:53:26;11.10;99.90
22224;DHT22;11281;52.194;21.006;2023-04-24T18:57:27;11.00;99.90
22224;DHT22;11281;52.194;21.006;2023-04-24T19:01:30;10.80;99.90
22224;DHT22;11281;52.194;21.006;2023-04-24T19:05:33;11.00;99.90
22224;DHT22;11281;52.194;21.006;2023-04-24T19:09:35;10.90;99.90
22224;DHT22;11281;52.194;21.006;2023-04-24T19:13:36;10.90;99.90
22224;DHT22;11281;52.194;21.006;2023-04-24T19:17:38;10.60;99.90
22224;DHT22;11281;52.194;21.006;2023-04-24T19:21:40;10.90;99.90
22224;DHT22;11281;52.194;21.006;2023-04-24T19:25:41;10.80;99.90
22224;DHT22;11281;52.194;21.006;2023-04-24T19:29:43;10.70;99.90
22224;DHT22;11281;52.194;21.006;2023-04-24T19:33:46;10.70;99.90
22224;DHT22;11281;52.194;21.006;2023-04-24T19:37:48;10.50;99.90
22224;DHT22;11281;52.194;21.006;2023-04-24T19:41:50;10.30;99.90
22224;DHT22;11281;52.194;21.006;2023-04-24T19:45:51;10.10;99.90
22224;DHT22;11281;52.194;21.006;2023-04-24T19:49:53;10.00;99.90
22224;DHT22;11281;52.194;21.006;2023-04-24T19:53:55;9.80;99.90
22224;DHT22;11281;52.194;21.006;2023-04-24T19:57:57;9.90;99.90
22224;DHT22;11281;52.194;21.006;2023-04-24T20:01:59;9.80;99.90
22224;DHT22;11281;52.194;21.006;2023-04-24T20:06:01;9.90;99.90
22224;DHT22;11281;52.194;21.006;2023-04-24T20:10:03;9.90;99.90
22224;DHT22;11281;52.194;21.006;2023-04-24T20:14:05;9.90;99.90
22224;DHT22;11281;52.194;21.006;2023-04-24T20:18:06;9.70;99.90
22224;DHT22;11281;52.194;21.006;2023-04-24T20:22:09;9.90;99.90
22224;DHT22;11281;52.194;21.006;2023-04-24T20:26:11;10.00;99.90
22224;DHT22;11281;52.194;21.006;2023-04-24T20:30:12;9.90;99.90
22224;DHT22;11281;52.194;21.006;2023-04-24T20:34:14;9.60;99.90
22224;DHT22;11281;52.194;21.006;2023-04-24T20:38:16;9.50;99.90
22224;DHT22;11281;52.194;21.006;2023-04-24T20:42:18;9.60;99.90
22224;DHT22;11281;52.194;21.006;2023-04-24T20:46:20;9.20;99.90
22224;DHT22;11281;52.194;21.006;2023-04-24T20:50:22;9.30;99.90
22224;DHT22;11281;52.194;21.006;2023-04-24T20:54:26;9.00;99.90
22224;DHT22;11281;52.194;21.006;2023-04-24T20:58:28;9.10;99.90
22224;DHT22;11281;52.194;21.006;2023-04-24T21:02:29;9.00;99.90
22224;DHT22;11281;52.194;21.006;2023-04-24T21:06:31;9.00;99.90
22224;DHT22;11281;52.194;21.006;2023-04-24T21:10:32;9.00;99.90
22224;DHT22;11281;52.194;21.006;2023-04-24T21:14:34;9.00;99.90
22224;DHT22;11281;52.194;21.006;2023-04-24T21:18:35;8.90;99.90
22224;DHT22;11281;52.194;21.006;2023-04-24T21:22:42;9.00;99.90
22224;DHT22;11281;52.194;21.006;2023-04-24T21:26:45;8.80;99.90
22224;DHT22;11281;52.194;21.006;2023-04-24T21:30:47;8.60;99.90
22224;DHT22;11281;52.194;21.006;2023-04-24T21:34:49;8.50;99.90
22224;DHT22;11281;52.194;21.006;2023-04-24T21:38:53;8.60;99.90
22224;DHT22;11281;52.194;21.006;2023-04-24T21:42:55;8.50;99.90
22224;DHT22;11281;52.194;21.006;2023-04-24T21:46:57;8.60;99.90
22224;DHT22;11281;52.194;21.006;2023-04-24T21:50:59;8.60;99.90
22224;DHT22;11281;52.194;21.006;2023-04-24T21:55:01;8.60;99.90
22224;DHT22;11281;52.194;21.006;2023-04-24T21:59:03;8.60;99.90
22224;DHT22;11281;52.194;21.006;2023-04-24T22:03:05;8.70;99.90
22224;DHT22;11281;52.194;21.006;2023-04-24T22:07:06;8.80;99.90
22224;DHT22;11281;52.194;21.006;2023-04-24T22:11:08;9.20;99.90
22224;DHT22;11281;52.194;21.006;2023-04-24T22:15:11;9.20;99.90
22224;DHT22;11281;52.194;21.006;2023-04-24T22:19:13;9.30;99.90
22224;DHT22;11281;52.194;21.006;2023-04-24T22:23:14;9.40;99.90
22224;DHT22;11281;52.194;21.006;2023-04-24T22:27:16;9.50;99.90
22224;DHT22;11281;52.194;21.006;2023-04-24T22:31:18;9.80;99.90
22224;DHT22;11281;52.194;21.006;2023-04-24T22:35:20;9.80;99.90
22224;DHT22;11281;52.194;21.006;2023-04-24T22:39:22;9.90;99.90
22224;DHT22;11281;52.194;21.006;2023-04-24T22:43:25;9.90;99.90
22224;DHT22;11281;52.194;21.006;2023-04-24T22:47:26;9.90;99.90
22224;DHT22;11281;52.194;21.006;2023-04-24T22:51:28;10.00;99.90
22224;DHT22;11281;52.194;21.006;2023-04-24T22:55:32;10.00;99.90
22224;DHT22;11281;52.194;21.006;2023-04-24T22:59:36;10.00;99.90
22224;DHT22;11281;52.194;21.006;2023-04-24T23:03:38;9.90;99.90
22224;DHT22;11281;52.194;21.006;2023-04-24T23:07:42;9.80;99.90
22224;DHT22;11281;52.194;21.006;2023-04-24T23:11:44;9.80;99.90
22224;DHT22;11281;52.194;21.006;2023-04-24T23:15:45;9.90;99.90
22224;DHT22;11281;52.194;21.006;2023-04-24T23:19:47;9.80;99.90
22224;DHT22;11281;52.194;21.006;2023-04-24T23:23:48;9.50;99.90
22224;DHT22;11281;52.194;21.006;2023-04-24T23:27:51;9.50;99.90
22224;DHT22;11281;52.194;21.006;2023-04-24T23:31:53;9.40;99.90
22224;DHT22;11281;52.194;21.006;2023-04-24T23:35:55;9.40;99.90
22224;DHT22;11281;52.194;21.006;2023-04-24T23:39:58;9.20;99.90
22224;DHT22;11281;52.194;21.006;2023-04-24T23:44:00;8.90;99.90
22224;DHT22;11281;52.194;21.006;2023-04-24T23:48:01;8.80;99.90
22224;DHT22;11281;52.194;21.006;2023-04-24T23:52:04;8.90;99.90
22224;DHT22;11281;52.194;21.006;2023-04-24T23:56:06;8.80;99.90
